createdAt,value
2023-02-01T00:04:53.656Z,4.1
2023-02-01T00:09:53.617Z,4.1
2023-02-01T00:14:53.621Z,4.0
2023-02-01T00:19:53.621Z,4.0
2023-02-01T00:24:53.624Z,4.0
2023-02-01T00:29:53.626Z,4.0
2023-02-01T00:34:53.663Z,4.0
2023-02-01T00:39:53.632Z,4.1
2023-02-01T00:44:53.692Z,4.1
2023-02-01T00:49:53.638Z,4.2
2023-02-01T00:54:53.650Z,4.2
2023-02-01T00:59:53.641Z,4.2
2023-02-01T01:04:53.665Z,4.1
2023-02-01T01:09:53.642Z,4.1
2023-02-01T01:14:53.654Z,4.2
2023-02-01T01:19:53.649Z,4.2
2023-02-01T01:24:53.658Z,4.1
2023-02-01T01:29:53.655Z,4.2
2023-02-01T01:34:53.708Z,4.0
2023-02-01T01:39:53.664Z,3.9
2023-02-01T01:44:53.666Z,3.9
2023-02-01T01:49:53.675Z,3.9
2023-02-01T01:54:53.668Z,4.0
2023-02-01T01:59:53.672Z,4.1
2023-02-01T02:04:53.717Z,4.2
2023-02-01T02:10:00.602Z,4.4
2023-02-01T02:14:53.708Z,4.6
2023-02-01T02:19:53.679Z,4.7
2023-02-01T02:24:53.697Z,4.9
2023-02-01T02:29:53.689Z,5.1
2023-02-01T02:34:53.864Z,5.3
2023-02-01T02:39:53.709Z,5.4
2023-02-01T02:44:53.705Z,5.5
2023-02-01T02:49:53.698Z,5.5
2023-02-01T02:54:53.705Z,5.5
2023-02-01T02:59:53.709Z,5.7
2023-02-01T03:04:53.730Z,5.7
2023-02-01T03:09:53.719Z,5.7
2023-02-01T03:14:53.721Z,5.8
2023-02-01T03:19:53.716Z,5.7
2023-02-01T03:24:53.736Z,5.7
2023-02-01T03:29:53.726Z,5.7
2023-02-01T03:34:53.855Z,5.8
2023-02-01T03:39:53.743Z,5.8
2023-02-01T03:44:53.729Z,5.8
2023-02-01T03:49:53.764Z,5.7
2023-02-01T03:54:53.738Z,5.8
2023-02-01T03:59:53.755Z,5.7
2023-02-01T04:04:53.785Z,5.5
2023-02-01T04:09:53.744Z,5.6
2023-02-01T04:14:53.753Z,5.7
2023-02-01T04:19:55.457Z,5.8
2023-02-01T04:24:53.755Z,5.8
2023-02-01T04:29:53.770Z,5.8
2023-02-01T04:34:53.849Z,5.8
2023-02-01T04:39:53.761Z,5.9
2023-02-01T04:44:53.765Z,5.9
2023-02-01T04:49:53.771Z,5.9
2023-02-01T04:54:53.771Z,6.0
2023-02-01T04:59:53.792Z,5.9
2023-02-01T05:04:53.964Z,5.9
2023-02-01T05:09:53.792Z,5.7
2023-02-01T05:14:53.787Z,5.6
2023-02-01T05:19:53.793Z,5.6
2023-02-01T05:24:53.794Z,5.7
2023-02-01T05:29:53.788Z,5.8
2023-02-01T05:34:53.820Z,5.8
2023-02-01T05:39:53.796Z,5.7
2023-02-01T05:44:53.806Z,5.8
2023-02-01T05:49:53.834Z,5.8
2023-02-01T05:54:53.811Z,5.9
2023-02-01T05:59:53.809Z,5.9
2023-02-01T06:04:53.840Z,6.0
2023-02-01T06:09:53.828Z,6.0
2023-02-01T06:14:53.816Z,6.0
2023-02-01T06:19:53.819Z,6.0
2023-02-01T06:24:53.822Z,5.9
2023-02-01T06:29:53.818Z,5.8
2023-02-01T06:34:53.881Z,5.8
2023-02-01T06:39:53.835Z,5.7
2023-02-01T06:44:53.833Z,5.7
2023-02-01T06:49:53.834Z,5.5
2023-02-01T06:54:53.837Z,5.5
2023-02-01T06:59:53.840Z,5.5
2023-02-01T07:04:53.871Z,5.5
2023-02-01T07:09:53.853Z,5.6
2023-02-01T07:14:53.848Z,5.6
2023-02-01T07:19:53.852Z,5.7
2023-02-01T07:24:53.857Z,5.7
2023-02-01T07:29:53.868Z,5.7
2023-02-01T07:34:53.891Z,5.8
2023-02-01T07:39:53.865Z,5.8
2023-02-01T07:44:47.391Z,5.8
2023-02-01T07:44:53.783Z,5.7
2023-02-01T07:49:53.872Z,5.8
2023-02-01T07:54:53.880Z,5.9
2023-02-01T07:59:53.883Z,5.9
2023-02-01T08:04:53.925Z,5.9
2023-02-01T08:09:53.892Z,5.8
2023-02-01T08:14:53.884Z,5.8
2023-02-01T08:19:53.888Z,5.8
2023-02-01T08:24:53.891Z,5.8
2023-02-01T08:29:53.895Z,6.2
2023-02-01T08:34:54.127Z,6.3
2023-02-01T08:39:53.907Z,6.3
2023-02-01T08:45:02.102Z,6.4
2023-02-01T08:49:53.907Z,6.5
2023-02-01T08:54:53.926Z,6.5
2023-02-01T08:59:53.911Z,6.5
2023-02-01T09:04:54.371Z,6.7
2023-02-01T09:09:53.954Z,6.8
2023-02-01T09:14:53.949Z,6.8
2023-02-01T09:19:53.920Z,6.9
2023-02-01T09:24:55.138Z,7.0
2023-02-01T09:29:53.927Z,7.1
2023-02-01T09:34:54.035Z,7.1
2023-02-01T09:39:53.943Z,7.1
2023-02-01T09:44:53.935Z,7.1
2023-02-01T09:49:53.993Z,7.0
2023-02-01T09:54:53.950Z,6.9
2023-02-01T09:59:53.982Z,6.9
2023-02-01T10:04:53.960Z,6.9
2023-02-01T10:09:53.957Z,6.9
2023-02-01T10:14:53.952Z,6.8
2023-02-01T10:19:53.985Z,6.6
2023-02-01T10:24:53.958Z,6.4
2023-02-01T10:29:53.961Z,6.3
2023-02-01T10:34:54.014Z,6.2
2023-02-01T10:39:53.988Z,6.1
2023-02-01T10:44:53.997Z,6.0
2023-02-01T10:49:53.971Z,5.9
2023-02-01T10:54:53.988Z,5.8
2023-02-01T10:59:53.988Z,5.8
2023-02-01T11:04:54.006Z,5.9
2023-02-01T11:09:53.998Z,5.9
2023-02-01T11:14:53.988Z,5.9
2023-02-01T11:19:53.997Z,6.0
2023-02-01T11:24:54.001Z,6.0
2023-02-01T11:29:53.997Z,6.1
2023-02-01T11:34:54.106Z,6.2
2023-02-01T11:39:54.025Z,6.3
2023-02-01T11:44:54.012Z,6.4
2023-02-01T11:49:54.010Z,6.7
2023-02-01T11:54:54.012Z,6.9
2023-02-01T11:59:56.781Z,7.1
2023-02-01T12:04:54.039Z,7.1
2023-02-01T12:09:54.025Z,7.1
2023-02-01T12:14:54.018Z,7.1
2023-02-01T12:19:56.006Z,7.2
2023-02-01T12:24:54.033Z,7.2
2023-02-01T12:29:54.031Z,7.2
2023-02-01T12:34:54.088Z,7.2
2023-02-01T12:39:54.057Z,7.3
2023-02-01T12:44:54.037Z,7.4
2023-02-01T12:49:54.038Z,7.5
2023-02-01T12:54:54.053Z,7.4
2023-02-01T12:59:54.039Z,7.2
2023-02-01T13:04:54.080Z,7.2
2023-02-01T13:09:54.083Z,7.0
2023-02-01T13:14:54.066Z,6.9
2023-02-01T13:19:54.078Z,6.9
2023-02-01T13:24:54.068Z,6.8
2023-02-01T13:29:54.070Z,6.7
2023-02-01T13:34:54.097Z,6.5
2023-02-01T13:39:54.176Z,6.3
2023-02-01T13:44:54.095Z,6.3
2023-02-01T13:49:54.075Z,6.4
2023-02-01T13:54:54.079Z,6.4
2023-02-01T13:59:54.082Z,6.5
2023-02-01T14:04:54.115Z,6.5
2023-02-01T14:09:54.081Z,6.6
2023-02-01T14:14:54.612Z,6.7
2023-02-01T14:19:54.103Z,6.8
2023-02-01T14:24:54.090Z,6.8
2023-02-01T14:29:54.095Z,6.8
2023-02-01T14:34:54.127Z,6.8
2023-02-01T14:39:54.111Z,6.9
2023-02-01T14:44:59.016Z,6.9
2023-02-01T14:49:54.105Z,7.0
2023-02-01T14:54:54.116Z,7.0
2023-02-01T14:59:54.126Z,7.0
2023-02-01T15:04:54.133Z,6.9
2023-02-01T15:09:54.119Z,7.0
2023-02-01T15:14:54.131Z,6.9
2023-02-01T15:19:54.127Z,7.0
2023-02-01T15:24:54.136Z,7.0
2023-02-01T15:29:54.196Z,7.0
2023-02-01T15:34:54.150Z,6.8
2023-02-01T15:39:54.139Z,6.3
2023-02-01T15:44:54.149Z,6.0
2023-02-01T15:49:54.144Z,5.8
2023-02-01T15:54:54.284Z,5.4
2023-02-01T15:59:54.145Z,5.3
2023-02-01T16:04:54.168Z,5.3
2023-02-01T16:09:54.163Z,5.2
2023-02-01T16:14:54.164Z,5.1
2023-02-01T16:19:54.157Z,4.9
2023-02-01T16:24:54.157Z,4.8
2023-02-01T16:29:54.167Z,4.8
2023-02-01T16:34:54.228Z,4.9
2023-02-01T16:39:54.169Z,5.0
2023-02-01T16:44:54.184Z,5.1
2023-02-01T16:49:54.175Z,5.4
2023-02-01T16:54:54.173Z,5.7
2023-02-01T16:59:54.201Z,5.6
2023-02-01T17:04:54.415Z,5.7
2023-02-01T17:09:54.217Z,5.6
2023-02-01T17:14:54.210Z,5.5
2023-02-01T17:19:54.187Z,5.4
2023-02-01T17:24:54.246Z,5.3
2023-02-01T17:29:54.200Z,5.1
2023-02-01T17:34:54.243Z,5.1
2023-02-01T17:39:54.204Z,5.1
2023-02-01T17:44:54.222Z,5.1
2023-02-01T17:49:54.214Z,5.2
2023-02-01T17:54:54.520Z,5.4
2023-02-01T17:59:54.213Z,5.5
2023-02-01T18:04:54.253Z,5.7
2023-02-01T18:09:54.231Z,5.9
2023-02-01T18:14:54.319Z,5.9
2023-02-01T18:19:54.230Z,6.1
2023-02-01T18:24:54.231Z,6.3
2023-02-01T18:29:54.244Z,6.3
2023-02-01T18:34:54.259Z,6.3
2023-02-01T18:39:54.234Z,6.4
2023-02-01T18:44:54.242Z,6.4
2023-02-01T18:49:54.246Z,6.4
2023-02-01T18:54:59.914Z,6.3
2023-02-01T18:59:54.355Z,6.2
2023-02-01T19:04:54.305Z,6.3
2023-02-01T19:09:54.323Z,6.2
2023-02-01T19:14:54.258Z,6.2
2023-02-01T19:19:54.280Z,6.2
2023-02-01T19:24:54.780Z,6.2
2023-02-01T19:29:54.519Z,6.2
2023-02-01T19:34:54.263Z,6.2
2023-02-01T19:39:54.269Z,6.2
2023-02-01T19:44:54.360Z,6.1
2023-02-01T19:49:54.278Z,5.8
2023-02-01T19:54:54.288Z,5.6
2023-02-01T19:59:54.308Z,5.3
2023-02-01T20:04:53.415Z,5.2
2023-02-01T20:07:42.480Z,5.1
2023-02-01T20:11:55.162Z,5.1
2023-02-01T20:16:55.166Z,5.1
2023-02-01T20:21:55.177Z,5.0
2023-02-01T20:26:56.057Z,4.9
2023-02-01T20:31:56.086Z,4.9
2023-02-01T20:36:56.058Z,4.9
2023-02-01T20:41:56.069Z,5.0
2023-02-01T20:46:56.099Z,5.0
2023-02-01T20:51:56.076Z,5.1
2023-02-01T20:56:56.098Z,5.2
2023-02-01T21:01:56.213Z,5.2
2023-02-01T21:06:56.083Z,5.2
2023-02-01T21:11:56.105Z,5.2
2023-02-01T21:16:56.104Z,5.2
2023-02-01T21:21:08.951Z,5.2
2023-02-01T21:21:56.108Z,5.1
2023-02-01T21:26:56.225Z,5.0
2023-02-01T21:31:56.209Z,4.9
2023-02-01T21:36:56.109Z,4.9
2023-02-01T21:41:56.124Z,4.8
2023-02-01T21:46:56.120Z,4.8
2023-02-01T21:51:56.116Z,4.8
2023-02-01T21:56:56.128Z,4.8
2023-02-01T22:01:56.146Z,4.9
2023-02-01T22:06:56.130Z,4.9
2023-02-01T22:11:56.131Z,5.0
2023-02-01T22:16:56.183Z,5.1
2023-02-01T22:21:56.136Z,5.0
2023-02-01T22:26:56.183Z,5.0
2023-02-01T22:31:56.227Z,5.0
2023-02-01T22:36:56.132Z,5.0
2023-02-01T22:41:56.140Z,5.0
2023-02-01T22:46:56.139Z,5.0
2023-02-01T22:51:56.128Z,5.0
2023-02-01T22:56:56.131Z,4.9
2023-02-01T23:01:56.146Z,4.9
2023-02-01T23:06:56.129Z,4.9
2023-02-01T23:11:56.141Z,5.0
2023-02-01T23:16:56.128Z,5.2
2023-02-01T23:21:56.132Z,5.3
2023-02-01T23:26:56.153Z,5.4
2023-02-01T23:31:56.190Z,5.6
2023-02-01T23:36:56.139Z,5.7
2023-02-01T23:41:56.141Z,5.7
2023-02-01T23:46:56.141Z,5.7
2023-02-01T23:51:56.143Z,5.7
2023-02-01T23:56:56.141Z,5.7
